Time,TemperatureF,DewpointF,PressureIn,WindDirection,WindDirectionDegrees,WindSpeedMPH,WindSpeedGustMPH,Humidity,HourlyPrecipIn,Conditions,Clouds,dailyrainin,SolarRadiationWatts/m^2,SoftwareType,DateUTC
2013-04-02 00:32:00,48.0,28.0,-100.00,WSW,252,4.0,9.0,45,-99.99,,,0.00,0.000000,,2013-04-02 06:32:00,
2013-04-02 00:42:00,48.0,28.0,-100.00,WSW,252,4.0,9.0,45,-99.99,,,0.00,0.000000,,2013-04-02 06:42:00,
2013-04-02 00:52:00,48.0,28.0,-100.00,WSW,252,4.0,9.0,45,-99.99,,,0.00,0.000000,,2013-04-02 06:52:00,
2013-04-02 02:32:00,46.0,28.0,-100.00,SW,225,6.0,12.0,50,-99.99,,,0.00,0.000000,,2013-04-02 08:32:00,
2013-04-02 03:33:00,45.0,28.0,-100.00,SW,234,6.0,11.0,52,-99.99,,,0.00,0.000000,,2013-04-02 09:33:00,
2013-04-02 04:33:00,45.0,30.0,-100.00,West,262,8.0,14.0,56,-99.99,,,0.00,0.000000,,2013-04-02 10:33:00,
2013-04-02 05:33:00,44.0,31.0,-100.00,WSW,253,5.0,12.0,59,-99.99,,,0.00,0.000000,,2013-04-02 11:33:00,
2013-04-02 07:33:00,43.0,32.0,-100.00,SSE,168,4.0,11.0,65,-99.99,,,0.00,0.000000,,2013-04-02 13:33:00,
2013-04-02 08:33:00,46.0,34.0,-100.00,SSE,155,1.0,7.0,62,-99.99,,,0.00,43.000000,,2013-04-02 14:33:00,
2013-04-02 09:33:00,48.0,33.0,-100.00,South,183,4.0,9.0,55,-99.99,,,0.00,225.000000,,2013-04-02 15:33:00,
2013-04-02 10:39:00,50.0,34.0,-100.00,West,271,5.0,13.0,54,-99.99,,,-99.99,427.000000,,2013-04-02 16:39:00,
2013-04-02 10:44:00,50.0,34.0,-100.00,West,271,5.0,13.0,54,-99.99,,,-99.99,427.000000,,2013-04-02 16:44:00,
2013-04-02 10:53:00,50.0,34.0,-100.00,West,271,5.0,13.0,54,-99.99,,,-99.99,427.000000,,2013-04-02 16:53:00,
2013-04-02 11:35:00,50.0,34.0,-100.00,West,273,12.0,20.0,53,0.00,,,0.00,630.000000,,2013-04-02 17:35:00,
2013-04-02 11:43:00,50.0,34.0,-100.00,West,273,12.0,20.0,53,0.00,,,0.00,630.000000,,2013-04-02 17:43:00,
2013-04-02 11:55:00,50.0,34.0,-100.00,West,273,12.0,20.0,53,0.00,,,0.00,630.000000,,2013-04-02 17:55:00,
2013-04-02 12:02:00,50.0,34.0,-100.00,West,273,12.0,20.0,53,0.00,,,0.00,630.000000,,2013-04-02 18:02:00,
2013-04-02 12:35:00,48.0,33.0,-100.00,West,266,12.0,20.0,55,0.00,,,0.00,618.000000,,2013-04-02 18:35:00,
2013-04-02 12:43:00,48.0,33.0,-100.00,West,266,12.0,20.0,55,0.00,,,0.00,618.000000,,2013-04-02 18:43:00,
2013-04-02 12:55:00,48.0,33.0,-100.00,West,266,12.0,20.0,55,0.00,,,0.00,618.000000,,2013-04-02 18:55:00,
2013-04-02 13:02:00,48.0,33.0,-100.00,West,266,12.0,20.0,55,0.00,,,0.00,618.000000,,2013-04-02 19:02:00,
2013-04-02 13:34:00,52.0,33.0,-100.00,West,273,15.0,24.0,49,0.00,,,0.00,771.000000,,2013-04-02 19:34:00,
2013-04-02 13:45:00,52.0,33.0,-100.00,West,273,15.0,24.0,49,0.00,,,0.00,771.000000,,2013-04-02 19:45:00,
2013-04-02 13:54:00,52.0,33.0,-100.00,West,273,15.0,24.0,49,0.00,,,0.00,771.000000,,2013-04-02 19:54:00,
2013-04-02 14:02:00,52.0,33.0,-100.00,West,273,15.0,24.0,49,0.00,,,0.00,771.000000,,2013-04-02 20:02:00,
2013-04-02 14:34:00,52.0,32.0,-100.00,West,271,17.0,24.0,47,0.00,,,0.00,897.000000,,2013-04-02 20:34:00,
2013-04-02 14:44:00,52.0,32.0,-100.00,West,271,17.0,24.0,47,0.00,,,0.00,897.000000,,2013-04-02 20:44:00,
2013-04-02 14:54:00,52.0,32.0,-100.00,West,271,17.0,24.0,47,0.00,,,0.00,897.000000,,2013-04-02 20:54:00,
2013-04-02 15:03:00,52.0,32.0,-100.00,West,271,17.0,24.0,47,0.00,,,0.00,897.000000,,2013-04-02 21:03:00,
2013-04-02 16:33:00,55.0,32.0,-100.00,West,274,16.0,27.0,41,-99.99,,,0.00,783.000000,,2013-04-02 22:33:00,
2013-04-02 16:44:00,55.0,32.0,-100.00,West,274,16.0,27.0,41,-99.99,,,0.00,783.000000,,2013-04-02 22:44:00,
2013-04-02 16:53:00,55.0,32.0,-100.00,West,274,16.0,27.0,41,-99.99,,,0.00,783.000000,,2013-04-02 22:53:00,
2013-04-02 17:02:00,55.0,32.0,-100.00,West,274,16.0,27.0,41,-99.99,,,0.00,783.000000,,2013-04-02 23:02:00,
2013-04-02 17:36:00,55.0,31.0,-100.00,West,280,15.0,24.0,40,0.00,,,0.00,640.000000,,2013-04-02 23:36:00,
2013-04-02 17:43:00,55.0,31.0,-100.00,West,280,15.0,24.0,40,0.00,,,0.00,640.000000,,2013-04-02 23:43:00,
2013-04-02 17:53:00,55.0,31.0,-100.00,West,280,15.0,24.0,40,0.00,,,0.00,640.000000,,2013-04-02 23:53:00,
2013-04-02 18:02:00,55.0,31.0,-100.00,West,280,15.0,24.0,40,0.00,,,0.00,640.000000,,2013-04-03 00:02:00,
2013-04-02 18:34:00,54.0,31.0,-100.00,West,274,15.0,22.0,41,0.00,,,0.00,461.000000,,2013-04-03 00:34:00,
2013-04-02 18:47:00,54.0,31.0,-100.00,West,274,15.0,22.0,41,0.00,,,0.00,461.000000,,2013-04-03 00:47:00,
2013-04-02 18:55:00,54.0,31.0,-100.00,West,274,15.0,22.0,41,0.00,,,0.00,461.000000,,2013-04-03 00:55:00,
2013-04-02 19:03:00,54.0,31.0,-100.00,West,274,15.0,22.0,41,0.00,,,0.00,461.000000,,2013-04-03 01:03:00,
2013-04-02 19:34:00,52.0,30.0,-100.00,West,273,13.0,22.0,43,0.00,,,0.00,221.000000,,2013-04-03 01:34:00,
2013-04-02 19:42:00,52.0,30.0,-100.00,West,273,13.0,22.0,43,0.00,,,0.00,221.000000,,2013-04-03 01:42:00,
2013-04-02 19:53:00,52.0,30.0,-100.00,West,273,13.0,22.0,43,0.00,,,0.00,221.000000,,2013-04-03 01:53:00,
2013-04-02 20:03:00,52.0,30.0,-100.00,West,273,13.0,22.0,43,0.00,,,0.00,221.000000,,2013-04-03 02:03:00,
2013-04-02 20:34:00,49.0,31.0,-100.00,West,269,12.0,23.0,50,0.00,,,0.00,42.000000,,2013-04-03 02:34:00,
2013-04-02 20:44:00,49.0,31.0,-100.00,West,269,12.0,23.0,50,0.00,,,0.00,42.000000,,2013-04-03 02:44:00,
2013-04-02 20:53:00,49.0,31.0,-100.00,West,269,12.0,23.0,50,0.00,,,0.00,42.000000,,2013-04-03 02:53:00,
2013-04-02 21:03:00,49.0,31.0,-100.00,West,269,12.0,23.0,50,0.00,,,0.00,42.000000,,2013-04-03 03:03:00,
2013-04-02 21:38:00,48.0,32.0,-100.00,WSW,251,6.0,15.0,53,0.00,,,0.00,0.000000,,2013-04-03 03:38:00,
2013-04-02 21:44:00,48.0,32.0,-100.00,WSW,251,6.0,15.0,53,0.00,,,0.00,0.000000,,2013-04-03 03:44:00,
2013-04-02 21:54:00,48.0,32.0,-100.00,WSW,251,6.0,15.0,53,0.00,,,0.00,0.000000,,2013-04-03 03:54:00,
2013-04-02 22:03:00,48.0,32.0,-100.00,WSW,251,6.0,15.0,53,0.00,,,0.00,0.000000,,2013-04-03 04:03:00,
2013-04-02 22:33:00,46.0,29.0,-100.00,West,264,7.0,12.0,52,0.00,,,0.00,0.000000,,2013-04-03 04:33:00,
2013-04-02 22:43:00,46.0,29.0,-100.00,West,264,7.0,12.0,52,0.00,,,0.00,0.000000,,2013-04-03 04:43:00,
2013-04-02 22:53:00,46.0,29.0,-100.00,West,264,7.0,12.0,52,0.00,,,0.00,0.000000,,2013-04-03 04:53:00,
2013-04-02 23:32:00,45.0,31.0,-100.00,West,265,7.0,15.0,57,0.00,,,0.00,0.000000,,2013-04-03 05:32:00,
2013-04-02 23:42:00,45.0,31.0,-100.00,West,265,7.0,15.0,57,0.00,,,0.00,0.000000,,2013-04-03 05:42:00,
2013-04-02 23:52:00,45.0,31.0,-100.00,West,265,7.0,15.0,57,0.00,,,0.00,0.000000,,2013-04-03 05:52:00,